KSTP/STP METAR and TAF weather

Enter ICAO airport designator
Station Type Date Time Source
KSTP METAR 2019/10/15 20:53 UTC NOAA

KSTP 152053Z 36010KT 10SM OVC042 09/03 A2988 RMK AO2 RAB36E45 SLP121 P0000 60000 T00890033 53014


Station Type Date Time Source
KSTP Decoded METAR 2019/10/15 20:53 UTC NOAA

DOWNTOWN HOLMAN FIELD, MN, United States (KSTP) 44-56N 093-03W 219M
Oct 15, 2019 - 04:53 PM EDT / 2019.10.15 2053 UTC
Wind: from the N (360 degrees) at 12 MPH (10 KT):0
Visibility: 10 mile(s):0
Sky conditions: overcast
Precipitation last hour: A trace
Temperature: 48.0 F (8.9 C)
Dew Point: 37.9 F (3.3 C)
Relative Humidity: 67%
Pressure (altimeter): 29.88 in. Hg (1011 hPa)
Pressure tendency: 0.04 inches (1.4 hPa) higher than three hours ago
ob: KSTP 152053Z 36010KT 10SM OVC042 09/03 A2988 RMK AO2 RAB36E45 SLP121 P0000 60000 T00890033 53014
cycle: 21

Station Type Date Time Source
KSTP TAF 2018/02/05 20:57 UTC NOAA

TAF
AMD KSTP 051957Z 0520/0618 25007KT P6SM VCSH BKN020 OVC050
TEMPO 0520/0522 SCT020
FM052200 26006KT P6SM FEW020 BKN110
FM060100 31006KT P6SM FEW100
AMD NOT SKED

Example: see airport list